Time;durP1;ratioP1;P1;durP2;ratioP2;P2;SDS_P1;SDS_P2;PMS_P1;PMS_P2;Temp;Humidity;BMP_temperature;BMP_pressure;BME280_temperature;BME280_humidity;BME280_pressure;Samples;Min_cycle;Max_cycle;Signal;HPM_P1;HPM_P2
2023/07/30 00:00:52;;;;;;;7.32;4.60;;;22.40;72.60;;;;;;5027163;28;20029;-54
2023/07/30 00:03:18;;;;;;;10.80;4.75;;;22.40;72.60;;;;;;5032901;28;20029;-55
2023/07/30 00:05:52;;;;;;;12.23;4.70;;;22.30;72.80;;;;;;5032600;28;20175;-53
2023/07/30 00:08:18;;;;;;;8.35;4.35;;;22.30;73.00;;;;;;5032699;28;20026;-55
2023/07/30 00:10:43;;;;;;;11.73;4.60;;;22.30;73.20;;;;;;5032625;28;20036;-55
2023/07/30 00:13:09;;;;;;;10.93;4.00;;;22.40;73.20;;;;;;5032744;28;20029;-55
2023/07/30 00:15:35;;;;;;;12.10;4.47;;;22.40;73.00;;;;;;5032460;28;20397;-51
2023/07/30 00:18:01;;;;;;;13.13;4.35;;;22.30;72.90;;;;;;5032768;28;20079;-55
2023/07/30 00:20:26;;;;;;;10.13;4.18;;;22.40;73.00;;;;;;5030221;28;20029;-56
2023/07/30 00:22:52;;;;;;;11.10;4.22;;;22.40;73.10;;;;;;5024220;28;20498;-53
2023/07/30 00:25:18;;;;;;;10.93;4.55;;;22.40;72.90;;;;;;5012437;28;20104;-54
2023/07/30 00:27:44;;;;;;;10.25;3.78;;;22.40;72.90;;;;;;5030544;28;20034;-55
2023/07/30 00:30:10;;;;;;;9.50;4.25;;;22.30;72.90;;;;;;5013995;28;20021;-53
2023/07/30 00:32:36;;;;;;;9.00;4.00;;;22.30;72.80;;;;;;5029290;28;20017;-53
2023/07/30 00:35:03;;;;;;;10.70;3.97;;;22.30;73.00;;;;;;5010363;28;20453;-51
2023/07/30 00:37:29;;;;;;;15.88;4.38;;;22.30;73.00;;;;;;5007357;28;20092;-53
2023/07/30 00:39:55;;;;;;;11.88;4.65;;;22.30;73.10;;;;;;5005439;28;20038;-52
2023/07/30 00:42:20;;;;;;;7.30;3.30;;;22.30;73.10;;;;;;5006161;28;20144;-55
2023/07/30 00:44:46;;;;;;;10.73;3.33;;;22.30;73.00;;;;;;4987621;28;20112;-51
2023/07/30 00:47:12;;;;;;;8.55;4.07;;;22.30;73.00;;;;;;5004974;28;20014;-52
2023/07/30 00:49:38;;;;;;;8.27;3.45;;;22.30;72.80;;;;;;5032005;28;20037;-54
2023/07/30 00:52:06;;;;;;;8.52;3.55;;;22.30;72.80;;;;;;5031872;28;20043;-52
2023/07/30 00:54:32;;;;;;;11.73;3.15;;;22.20;72.80;;;;;;5026764;28;20021;-50
2023/07/30 00:56:58;;;;;;;5.45;3.28;;;22.20;72.60;;;;;;5018048;28;20025;-53
2023/07/30 00:59:24;;;;;;;9.38;3.55;;;22.20;72.60;;;;;;5029730;28;20036;-49
2023/07/30 01:01:51;;;;;;;5.00;3.13;;;22.20;72.60;;;;;;5014433;28;20036;-49
2023/07/30 01:04:17;;;;;;;5.93;3.63;;;22.20;72.60;;;;;;5031866;28;20091;-50
2023/07/30 01:06:43;;;;;;;8.70;3.05;;;22.20;72.50;;;;;;5013927;28;20489;-55
2023/07/30 01:09:10;;;;;;;8.00;3.00;;;22.20;72.40;;;;;;5031634;28;20061;-52
2023/07/30 01:11:37;;;;;;;7.10;3.08;;;22.20;72.40;;;;;;5031597;28;20022;-53
2023/07/30 01:14:05;;;;;;;6.20;2.72;;;22.20;72.40;;;;;;5031585;28;20022;-51
2023/07/30 01:16:31;;;;;;;6.95;2.88;;;22.20;72.80;;;;;;5030941;28;20028;-56
2023/07/30 01:18:58;;;;;;;5.13;2.55;;;22.20;72.20;;;;;;5014025;28;20109;-52
2023/07/30 01:21:24;;;;;;;6.35;2.97;;;22.20;72.10;;;;;;5007496;28;20075;-55
2023/07/30 01:23:50;;;;;;;4.97;3.03;;;22.20;71.90;;;;;;5007284;28;20720;-56
2023/07/30 01:26:24;;;;;;;5.05;2.95;;;22.20;71.90;;;;;;5009426;28;20041;-54
2023/07/30 01:28:56;;;;;;;3.72;2.58;;;22.20;72.00;;;;;;5004062;28;20052;-52
2023/07/30 01:31:26;;;;;;;4.95;3.00;;;22.20;71.90;;;;;;5004269;28;20516;-50
2023/07/30 01:33:54;;;;;;;6.13;2.75;;;22.20;71.80;;;;;;5013374;28;20026;-54
2023/07/30 01:36:22;;;;;;;3.70;2.63;;;22.20;71.70;;;;;;4986879;28;20025;-50
2023/07/30 01:38:50;;;;;;;5.32;2.67;;;22.20;71.80;;;;;;5011931;28;20049;-54
2023/07/30 01:41:16;;;;;;;4.38;2.70;;;22.20;71.70;;;;;;4987069;28;20436;-51
2023/07/30 01:43:41;;;;;;;4.18;2.60;;;22.20;71.50;;;;;;5004384;28;20060;-52
2023/07/30 01:46:07;;;;;;;5.93;2.72;;;22.20;71.70;;;;;;5004527;28;20029;-53
2023/07/30 01:48:33;;;;;;;3.53;2.67;;;22.20;71.60;;;;;;5025271;28;20072;-51
2023/07/30 01:50:59;;;;;;;3.60;2.35;;;22.20;71.50;;;;;;5013331;28;20444;-49
2023/07/30 01:53:25;;;;;;;7.30;2.80;;;22.20;71.50;;;;;;5012987;28;20053;-53
2023/07/30 01:55:51;;;;;;;6.45;2.90;;;22.20;71.40;;;;;;5005835;28;20400;-50
2023/07/30 01:58:17;;;;;;;5.05;2.50;;;22.20;71.40;;;;;;4999067;28;20030;-50
2023/07/30 02:00:44;;;;;;;5.07;2.75;;;22.20;71.30;;;;;;4988653;28;20026;-52
2023/07/30 02:03:09;;;;;;;4.82;2.30;;;22.20;71.50;;;;;;5004279;28;20504;-50
2023/07/30 02:05:35;;;;;;;4.97;2.65;;;22.20;71.40;;;;;;5003193;28;20029;-54
2023/07/30 02:08:01;;;;;;;3.92;2.25;;;22.20;71.50;;;;;;5004094;28;20159;-49
2023/07/30 02:10:27;;;;;;;3.67;2.35;;;22.20;71.30;;;;;;5015695;28;20033;-55
2023/07/30 02:12:53;;;;;;;5.47;2.70;;;22.20;71.30;;;;;;5005252;28;20072;-56
2023/07/30 02:15:18;;;;;;;5.45;2.22;;;22.20;71.40;;;;;;4986341;28;20133;-50
2023/07/30 02:17:44;;;;;;;3.55;2.20;;;22.10;71.30;;;;;;5016995;28;20026;-54
2023/07/30 02:20:11;;;;;;;4.03;2.60;;;22.10;71.20;;;;;;5030751;28;20044;-56
2023/07/30 02:22:36;;;;;;;4.43;2.40;;;22.10;71.90;;;;;;5002480;28;20029;-52
2023/07/30 02:25:03;;;;;;;5.18;2.45;;;22.20;71.30;;;;;;5005993;28;20048;-53
2023/07/30 02:27:29;;;;;;;4.50;2.50;;;22.20;71.20;;;;;;4986720;28;20041;-51
2023/07/30 02:29:55;;;;;;;4.90;2.70;;;22.20;71.30;;;;;;5003833;28;20029;-55
2023/07/30 02:32:21;;;;;;;4.45;2.65;;;22.10;71.20;;;;;;5004243;28;20026;-51
2023/07/30 02:34:47;;;;;;;5.28;2.67;;;22.20;71.30;;;;;;5003795;28;20026;-54
2023/07/30 02:37:13;;;;;;;2.90;2.28;;;22.10;71.20;;;;;;4994509;28;20037;-52
2023/07/30 02:39:38;;;;;;;5.00;2.50;;;22.20;71.30;;;;;;4983971;28;20177;-50
2023/07/30 02:42:05;;;;;;;3.92;2.35;;;22.10;71.10;;;;;;5003824;28;20128;-55
2023/07/30 02:44:30;;;;;;;3.15;2.20;;;22.20;71.20;;;;;;4987154;28;20025;-53
2023/07/30 02:46:56;;;;;;;6.28;2.55;;;22.10;71.10;;;;;;5010798;28;20076;-53
2023/07/30 02:49:23;;;;;;;6.38;2.88;;;22.10;71.10;;;;;;5012920;28;20026;-51
2023/07/30 02:51:49;;;;;;;7.03;2.92;;;22.10;71.00;;;;;;5031424;28;20084;-56
2023/07/30 02:54:20;;;;;;;4.10;2.63;;;22.20;71.10;;;;;;5017885;28;20496;-50
2023/07/30 02:56:46;;;;;;;2.95;2.38;;;22.20;71.70;;;;;;4998489;28;20030;-54
2023/07/30 02:59:12;;;;;;;4.35;2.40;;;22.10;71.10;;;;;;4996950;28;20039;-51
2023/07/30 03:01:38;;;;;;;4.07;2.10;;;22.10;71.00;;;;;;4989216;28;20525;-52
2023/07/30 03:04:05;;;;;;;4.18;2.53;;;22.10;71.00;;;;;;4989692;28;20037;-51
2023/07/30 03:06:31;;;;;;;5.63;2.90;;;22.10;71.10;;;;;;5006080;28;20753;-53
2023/07/30 03:08:57;;;;;;;5.40;2.70;;;22.10;71.10;;;;;;4991700;28;20025;-52
2023/07/30 03:11:23;;;;;;;3.80;2.22;;;22.10;71.00;;;;;;5006381;28;20037;-53
2023/07/30 03:13:49;;;;;;;3.70;2.50;;;22.10;71.00;;;;;;5006959;28;20057;-52
2023/07/30 03:16:15;;;;;;;3.60;2.15;;;22.10;71.00;;;;;;5006887;28;20052;-53
2023/07/30 03:18:40;;;;;;;7.20;2.83;;;22.10;71.00;;;;;;5025480;28;20032;-49
2023/07/30 03:21:06;;;;;;;6.43;2.30;;;22.10;71.10;;;;;;5033658;28;20493;-52
2023/07/30 03:23:32;;;;;;;3.70;2.40;;;22.10;71.10;;;;;;5025278;28;20092;-52
2023/07/30 03:26:00;;;;;;;2.95;2.33;;;22.10;71.00;;;;;;5006624;28;20104;-50
2023/07/30 03:28:26;;;;;;;5.13;2.33;;;22.10;70.90;;;;;;5008148;28;20025;-50
2023/07/30 03:30:52;;;;;;;4.80;2.35;;;22.10;71.00;;;;;;5006545;28;20033;-50
2023/07/30 03:33:17;;;;;;;4.80;2.40;;;22.10;71.00;;;;;;5006317;28;20545;-51
2023/07/30 03:35:43;;;;;;;5.78;2.95;;;22.00;70.90;;;;;;5006752;28;20037;-49
2023/07/30 03:38:09;;;;;;;3.90;2.30;;;22.10;70.90;;;;;;5009032;28;20112;-48
2023/07/30 03:40:35;;;;;;;5.35;2.63;;;22.10;70.90;;;;;;5006434;28;20083;-50
2023/07/30 03:43:01;;;;;;;5.10;2.70;;;22.00;70.90;;;;;;5008047;28;20432;-49
2023/07/30 03:45:28;;;;;;;4.43;2.63;;;22.00;71.00;;;;;;5015194;28;20029;-48
2023/07/30 03:47:54;;;;;;;3.38;2.47;;;22.00;70.90;;;;;;5033206;28;20036;-48
2023/07/30 03:50:20;;;;;;;5.07;2.60;;;22.10;70.90;;;;;;5033075;28;20037;-48
2023/07/30 03:52:47;;;;;;;4.45;2.70;;;22.10;70.90;;;;;;5012921;28;20029;-49
2023/07/30 03:55:12;;;;;;;4.03;2.42;;;22.10;70.90;;;;;;5005733;28;20036;-52
2023/07/30 03:57:38;;;;;;;5.47;2.53;;;22.10;70.80;;;;;;5016266;28;20513;-48
2023/07/30 04:00:05;;;;;;;4.68;2.80;;;22.10;70.80;;;;;;5005880;28;20037;-55
2023/07/30 04:02:40;;;;;;;4.55;2.70;;;22.10;70.70;;;;;;5005447;28;20508;-51
2023/07/30 04:05:06;;;;;;;3.78;2.60;;;22.10;70.80;;;;;;5008389;28;20060;-52
2023/07/30 04:07:32;;;;;;;6.05;3.05;;;22.10;70.70;;;;;;4988676;28;20104;-51
2023/07/30 04:09:57;;;;;;;3.92;2.70;;;22.10;70.70;;;;;;5005522;28;20255;-53
2023/07/30 04:12:23;;;;;;;3.97;2.38;;;22.10;70.70;;;;;;5005050;28;20041;-50
2023/07/30 04:14:49;;;;;;;4.60;2.75;;;22.10;70.80;;;;;;5003948;28;20025;-49
2023/07/30 04:17:15;;;;;;;4.60;2.60;;;22.10;70.80;;;;;;4988708;28;20036;-52
2023/07/30 04:19:40;;;;;;;4.80;2.65;;;22.10;70.80;;;;;;5005952;28;20030;-56
2023/07/30 04:22:06;;;;;;;5.20;2.60;;;22.10;70.70;;;;;;4988823;28;20044;-53
2023/07/30 04:24:32;;;;;;;3.60;2.72;;;22.10;70.70;;;;;;4990715;28;20033;-51
2023/07/30 04:27:00;;;;;;;4.75;2.60;;;22.10;70.80;;;;;;4991098;28;20064;-52
2023/07/30 04:29:26;;;;;;;5.45;2.85;;;22.10;70.70;;;;;;4987917;28;20029;-55
2023/07/30 04:31:52;;;;;;;5.78;3.00;;;22.00;70.70;;;;;;4987690;28;20489;-56
2023/07/30 04:34:18;;;;;;;5.78;2.92;;;22.00;70.60;;;;;;5006371;28;20172;-54
2023/07/30 04:36:44;;;;;;;5.63;2.70;;;22.10;70.80;;;;;;4992414;28;20091;-55
2023/07/30 04:39:12;;;;;;;5.97;3.50;;;22.10;70.60;;;;;;4990548;28;20029;-56
2023/07/30 04:41:38;;;;;;;3.83;2.78;;;22.10;70.60;;;;;;5010183;28;20061;-55
2023/07/30 04:44:04;;;;;;;5.85;3.17;;;22.10;70.60;;;;;;5009086;28;20061;-53
2023/07/30 04:46:30;;;;;;;4.55;2.95;;;22.00;70.50;;;;;;5002016;28;20029;-51
2023/07/30 04:48:57;;;;;;;6.78;3.30;;;22.10;71.10;;;;;;4997782;28;20584;-51
2023/07/30 04:51:22;;;;;;;4.68;3.05;;;22.00;70.40;;;;;;4994363;28;20018;-54
2023/07/30 04:53:48;;;;;;;5.15;2.92;;;22.10;70.40;;;;;;5023947;28;20472;-52
2023/07/30 04:56:14;;;;;;;5.60;3.10;;;22.00;70.30;;;;;;4996835;28;20042;-52
2023/07/30 04:58:40;;;;;;;5.60;3.17;;;22.10;70.40;;;;;;5015180;28;20030;-51
2023/07/30 05:01:06;;;;;;;6.60;3.05;;;22.10;70.30;;;;;;4991571;28;20396;-52
2023/07/30 05:03:32;;;;;;;5.32;2.65;;;22.00;70.20;;;;;;5004578;28;20030;-53
2023/07/30 05:05:57;;;;;;;3.85;2.97;;;22.00;70.10;;;;;;5005344;28;20099;-53
2023/07/30 05:08:23;;;;;;;5.97;3.03;;;22.10;70.20;;;;;;5004619;28;20022;-55
2023/07/30 05:10:49;;;;;;;4.60;2.78;;;22.10;70.10;;;;;;5006083;28;20037;-54
2023/07/30 05:13:15;;;;;;;3.67;2.70;;;22.10;70.00;;;;;;5010169;28;20116;-53
2023/07/30 05:15:40;;;;;;;8.77;3.00;;;22.00;70.00;;;;;;5020900;28;20040;-54
2023/07/30 05:18:06;;;;;;;5.35;2.78;;;22.10;69.90;;;;;;5031620;28;20072;-55
2023/07/30 05:20:32;;;;;;;5.65;2.90;;;22.10;69.90;;;;;;5018999;28;20041;-53
2023/07/30 05:22:58;;;;;;;5.38;2.97;;;22.00;69.80;;;;;;5006876;28;20030;-52
2023/07/30 05:25:24;;;;;;;5.88;2.90;;;22.00;69.80;;;;;;5003956;28;20033;-55
2023/07/30 05:27:49;;;;;;;4.97;2.78;;;22.00;69.80;;;;;;5005677;28;20080;-54
2023/07/30 05:30:15;;;;;;;3.92;2.90;;;22.00;69.80;;;;;;5017375;28;20437;-50
2023/07/30 05:32:41;;;;;;;6.00;3.17;;;22.00;69.80;;;;;;5008248;28;20022;-54
2023/07/30 05:35:07;;;;;;;4.93;3.33;;;22.10;69.90;;;;;;5004433;28;20052;-53
2023/07/30 05:37:33;;;;;;;4.03;2.95;;;22.00;69.80;;;;;;5008247;28;20079;-53
2023/07/30 05:39:59;;;;;;;5.07;2.70;;;22.10;69.90;;;;;;5006332;28;20029;-50
2023/07/30 05:42:24;;;;;;;3.35;2.63;;;22.00;69.70;;;;;;5010940;28;20029;-52
2023/07/30 05:44:50;;;;;;;3.65;2.40;;;22.10;69.80;;;;;;5012045;28;20041;-52
2023/07/30 05:47:16;;;;;;;3.72;2.50;;;22.00;69.70;;;;;;5030886;28;20022;-54
2023/07/30 05:49:42;;;;;;;4.45;3.13;;;22.00;69.70;;;;;;5030521;28;20056;-53
2023/07/30 05:52:07;;;;;;;3.65;2.72;;;22.00;69.70;;;;;;5012479;28;20029;-51
2023/07/30 05:54:33;;;;;;;5.38;2.60;;;22.10;69.70;;;;;;5010561;28;20034;-52
2023/07/30 05:56:59;;;;;;;4.95;2.78;;;22.10;69.60;;;;;;5009893;28;20497;-51
2023/07/30 05:59:25;;;;;;;6.78;2.60;;;22.00;69.60;;;;;;5007329;28;20063;-52
2023/07/30 06:01:51;;;;;;;6.13;2.67;;;22.10;69.60;;;;;;5006102;28;20065;-53
2023/07/30 06:04:16;;;;;;;3.88;2.65;;;22.10;69.60;;;;;;5004112;28;20064;-49
2023/07/30 06:06:42;;;;;;;5.38;2.47;;;22.00;69.40;;;;;;5007018;28;20045;-53
2023/07/30 06:09:08;;;;;;;3.40;2.60;;;22.10;69.50;;;;;;5007991;28;20032;-52
2023/07/30 06:11:33;;;;;;;3.20;2.60;;;22.10;69.50;;;;;;5007424;28;20040;-51
2023/07/30 06:13:59;;;;;;;3.65;2.80;;;22.10;69.60;;;;;;5007526;28;20552;-52
2023/07/30 06:16:25;;;;;;;4.00;2.90;;;22.10;69.60;;;;;;5001901;28;20111;-55
2023/07/30 06:18:51;;;;;;;3.78;2.40;;;22.00;69.60;;;;;;5023291;28;20416;-53
2023/07/30 06:21:17;;;;;;;4.57;2.50;;;22.00;69.50;;;;;;5003181;28;20037;-54
2023/07/30 06:23:42;;;;;;;3.50;2.40;;;22.00;69.60;;;;;;5008292;28;20037;-55
2023/07/30 06:26:08;;;;;;;9.57;2.90;;;22.00;69.60;;;;;;5005937;28;20041;-51
2023/07/30 06:28:34;;;;;;;5.50;2.63;;;22.10;69.60;;;;;;5009973;28;20034;-51
2023/07/30 06:31:02;;;;;;;4.47;2.53;;;22.00;69.60;;;;;;5008352;28;20033;-51
2023/07/30 06:33:27;;;;;;;3.50;2.50;;;22.00;69.60;;;;;;5011003;28;20478;-53
2023/07/30 06:35:53;;;;;;;3.15;2.70;;;22.10;69.70;;;;;;5009494;28;20029;-54
2023/07/30 06:38:19;;;;;;;3.53;2.47;;;22.10;69.70;;;;;;5008534;28;20030;-54
2023/07/30 06:40:45;;;;;;;2.53;2.20;;;22.10;69.80;;;;;;5011350;28;20034;-53
2023/07/30 06:43:11;;;;;;;3.03;2.25;;;22.00;69.70;;;;;;5014271;28;20049;-51
2023/07/30 06:45:36;;;;;;;4.00;2.50;;;22.00;69.70;;;;;;5009327;28;20475;-51
2023/07/30 06:48:02;;;;;;;3.85;2.47;;;22.10;69.70;;;;;;5031106;28;20067;-55
2023/07/30 06:50:28;;;;;;;4.68;2.72;;;22.10;69.70;;;;;;5034462;28;20065;-48
2023/07/30 06:52:54;;;;;;;5.03;2.70;;;22.00;69.80;;;;;;5021298;28;20022;-54
2023/07/30 06:55:20;;;;;;;3.55;2.40;;;22.10;69.90;;;;;;5007021;28;20040;-54
2023/07/30 06:57:46;;;;;;;4.63;2.53;;;22.10;69.80;;;;;;5013643;28;20044;-54
2023/07/30 07:00:12;;;;;;;4.90;2.70;;;22.00;69.90;;;;;;5011682;28;20030;-53
2023/07/30 07:02:38;;;;;;;5.00;2.58;;;22.00;69.90;;;;;;5007264;28;20033;-52
2023/07/30 07:05:05;;;;;;;5.97;2.80;;;22.10;69.90;;;;;;5010482;28;20483;-52
2023/07/30 07:07:30;;;;;;;3.33;2.35;;;22.10;69.90;;;;;;5007841;28;20029;-49
2023/07/30 07:09:56;;;;;;;8.35;2.53;;;22.10;70.00;;;;;;5009975;28;20021;-50
2023/07/30 07:12:22;;;;;;;5.10;2.35;;;22.10;69.90;;;;;;5006957;28;20423;-53
2023/07/30 07:14:48;;;;;;;4.30;2.47;;;22.10;69.90;;;;;;5014595;28;20041;-54
2023/07/30 07:17:14;;;;;;;4.35;2.55;;;22.10;70.20;;;;;;5012240;28;20028;-55
2023/07/30 07:19:39;;;;;;;3.83;2.50;;;22.10;69.90;;;;;;5030364;28;20393;-53
2023/07/30 07:22:05;;;;;;;5.70;2.50;;;22.20;70.20;;;;;;5017791;28;20130;-50
2023/07/30 07:24:31;;;;;;;8.45;2.55;;;22.20;70.00;;;;;;5010571;28;20030;-49
2023/07/30 07:26:57;;;;;;;4.82;2.22;;;22.20;69.90;;;;;;5008214;28;20033;-53
2023/07/30 07:29:23;;;;;;;4.60;2.35;;;22.20;70.00;;;;;;5022665;28;20033;-53
2023/07/30 07:31:49;;;;;;;4.18;2.45;;;22.20;69.80;;;;;;5027179;28;20044;-49
2023/07/30 07:34:15;;;;;;;6.10;2.40;;;22.20;69.90;;;;;;5012086;28;20405;-54
2023/07/30 07:36:40;;;;;;;4.78;2.50;;;22.20;70.50;;;;;;5010824;28;20033;-52
2023/07/30 07:39:06;;;;;;;8.63;2.47;;;22.20;69.90;;;;;;5009950;28;20587;-52
2023/07/30 07:41:32;;;;;;;3.00;2.40;;;22.20;69.90;;;;;;5005744;28;20026;-52
2023/07/30 07:43:58;;;;;;;6.13;2.33;;;22.20;70.00;;;;;;5016164;28;20030;-55
2023/07/30 07:46:26;;;;;;;4.57;2.40;;;22.20;69.90;;;;;;5008799;28;20064;-50
2023/07/30 07:48:51;;;;;;;8.98;2.53;;;22.20;70.10;;;;;;5024764;28;20029;-51
2023/07/30 07:51:17;;;;;;;5.15;2.40;;;22.20;70.10;;;;;;5032985;28;20017;-51
2023/07/30 07:53:43;;;;;;;10.32;3.00;;;22.20;70.10;;;;;;5030333;28;20026;-53
2023/07/30 07:56:09;;;;;;;3.30;2.60;;;22.20;70.30;;;;;;5011613;28;20152;-52
2023/07/30 07:58:35;;;;;;;5.10;2.78;;;22.20;70.50;;;;;;5011241;28;20042;-54
2023/07/30 08:01:01;;;;;;;6.10;2.50;;;22.20;71.00;;;;;;5013623;28;20400;-54
2023/07/30 08:03:27;;;;;;;3.85;2.30;;;22.20;70.40;;;;;;5008693;28;20040;-53
2023/07/30 08:05:53;;;;;;;4.53;2.67;;;22.20;70.60;;;;;;5007154;28;20033;-54
2023/07/30 08:08:19;;;;;;;4.05;2.22;;;22.20;70.40;;;;;;5011139;28;20025;-53
2023/07/30 08:10:47;;;;;;;5.03;2.50;;;22.30;70.60;;;;;;5006479;28;20025;-49
2023/07/30 08:13:13;;;;;;;4.25;2.70;;;22.20;70.30;;;;;;5006015;28;20587;-54
2023/07/30 08:15:39;;;;;;;4.40;2.63;;;22.20;70.40;;;;;;5008368;28;20041;-51
2023/07/30 08:18:05;;;;;;;5.40;2.72;;;22.30;70.50;;;;;;5018617;28;20374;-52
2023/07/30 08:20:31;;;;;;;3.95;2.42;;;22.20;70.40;;;;;;5005371;28;20040;-53
2023/07/30 08:22:57;;;;;;;4.90;2.58;;;22.20;70.60;;;;;;5008735;28;20581;-52
2023/07/30 08:25:22;;;;;;;7.13;2.60;;;22.20;70.70;;;;;;5055418;23;20046;-48
2023/07/30 08:27:48;;;;;;;7.80;2.70;;;22.20;70.70;;;;;;5024692;28;20080;-48
2023/07/30 08:30:14;;;;;;;4.30;2.50;;;22.20;70.70;;;;;;5016384;28;20025;-46
2023/07/30 08:32:41;;;;;;;3.67;2.25;;;22.20;70.60;;;;;;5002266;28;20492;-45
2023/07/30 08:35:07;;;;;;;3.58;2.05;;;22.30;71.00;;;;;;5008901;28;20496;-46
2023/07/30 08:37:33;;;;;;;4.20;2.38;;;22.20;70.70;;;;;;4990710;28;20040;-48
2023/07/30 08:39:59;;;;;;;4.22;2.30;;;22.20;70.80;;;;;;5012409;28;20033;-45
2023/07/30 08:42:25;;;;;;;4.88;2.38;;;22.20;70.70;;;;;;5008551;28;20029;-45
2023/07/30 08:44:51;;;;;;;4.80;2.83;;;22.20;70.90;;;;;;5012251;28;20021;-48
2023/07/30 08:47:16;;;;;;;11.52;2.60;;;22.20;70.90;;;;;;5019300;28;20527;-44
2023/07/30 08:49:42;;;;;;;4.03;2.65;;;22.20;70.90;;;;;;5013453;28;20562;-48
2023/07/30 08:52:09;;;;;;;4.20;2.60;;;22.20;70.90;;;;;;5007886;28;20034;-45
2023/07/30 08:54:37;;;;;;;6.35;2.90;;;22.20;70.90;;;;;;5016896;28;20029;-51
2023/07/30 08:57:04;;;;;;;5.43;2.95;;;22.20;71.00;;;;;;5032047;28;20147;-53
2023/07/30 09:00:08;;;;;;;3.63;2.55;;;22.20;70.80;;;;;;5025624;28;20536;-51
2023/07/30 09:02:39;;;;;;;4.05;2.63;;;22.30;70.80;;;;;;5008732;28;20029;-44
2023/07/30 09:05:06;;;;;;;7.20;2.60;;;22.30;70.70;;;;;;5010725;28;20068;-47
2023/07/30 09:07:32;;;;;;;4.53;2.72;;;22.30;70.60;;;;;;5008249;28;20029;-48
2023/07/30 09:09:58;;;;;;;4.22;2.70;;;22.30;70.60;;;;;;5009007;28;20455;-51
2023/07/30 09:12:31;;;;;;;4.78;2.67;;;22.30;70.60;;;;;;5011047;28;20032;-50
2023/07/30 09:14:57;;;;;;;5.00;2.70;;;22.30;70.50;;;;;;4993648;28;21020;-46
2023/07/30 09:17:23;;;;;;;6.32;2.70;;;22.30;70.60;;;;;;5013746;28;20569;-51
2023/07/30 09:19:52;;;;;;;5.85;2.78;;;22.30;70.60;;;;;;5010795;28;20102;-51
2023/07/30 09:22:28;;;;;;;4.23;2.53;;;22.30;70.60;;;;;;5017615;28;20033;-47
2023/07/30 09:24:56;;;;;;;5.25;2.85;;;22.30;70.60;;;;;;5006812;28;20343;-52
2023/07/30 09:27:27;;;;;;;4.88;2.70;;;22.30;70.60;;;;;;5020450;28;20080;-50
2023/07/30 09:29:54;;;;;;;6.95;2.90;;;22.40;70.40;;;;;;5031461;28;20241;-50
2023/07/30 09:32:25;;;;;;;3.88;2.60;;;22.40;70.40;;;;;;5020784;28;20033;-52
2023/07/30 09:34:50;;;;;;;5.28;2.80;;;22.40;70.30;;;;;;5007559;28;20037;-51
2023/07/30 09:37:16;;;;;;;6.07;2.80;;;22.40;70.30;;;;;;5007138;28;20033;-50
2023/07/30 09:39:43;;;;;;;7.72;3.00;;;22.40;70.20;;;;;;5003874;28;20044;-51
2023/07/30 09:42:09;;;;;;;8.63;2.80;;;22.40;70.20;;;;;;5026100;28;20109;-50
2023/07/30 09:44:37;;;;;;;8.75;2.92;;;22.40;70.10;;;;;;5020377;28;20065;-45
2023/07/30 09:47:05;;;;;;;4.30;2.60;;;22.40;69.90;;;;;;5029508;28;20025;-45
2023/07/30 09:49:34;;;;;;;13.32;3.03;;;22.40;69.90;;;;;;5031237;28;20477;-52
2023/07/30 09:52:01;;;;;;;5.03;2.75;;;22.40;69.80;;;;;;5031283;28;20053;-50
2023/07/30 09:54:27;;;;;;;5.28;2.80;;;22.40;69.70;;;;;;5029536;28;20485;-48
2023/07/30 09:56:53;;;;;;;5.13;2.60;;;22.40;69.50;;;;;;5027739;28;20040;-44
2023/07/30 09:59:19;;;;;;;6.00;2.83;;;22.40;69.20;;;;;;5030932;28;20033;-47
2023/07/30 10:01:52;;;;;;;4.03;2.70;;;22.40;69.20;;;;;;5033653;28;20075;-45
2023/07/30 10:04:23;;;;;;;5.68;2.50;;;22.40;69.00;;;;;;5035099;28;20025;-45
2023/07/30 10:07:20;;;;;;;6.50;2.50;;;22.40;69.20;;;;;;5035356;28;20022;-45
2023/07/30 10:09:49;;;;;;;4.28;2.83;;;22.40;69.20;;;;;;5013657;28;20041;-44
2023/07/30 10:12:22;;;;;;;10.30;2.90;;;22.40;68.90;;;;;;5035122;28;20032;-43
2023/07/30 10:14:48;;;;;;;5.53;2.50;;;22.40;68.90;;;;;;5032021;28;20030;-43
2023/07/30 10:17:17;;;;;;;7.55;2.80;;;22.40;69.10;;;;;;5026577;28;20032;-45
2023/07/30 10:19:48;;;;;;;10.18;2.97;;;22.40;68.90;;;;;;5024864;28;20053;-42
2023/07/30 10:22:14;;;;;;;7.00;2.72;;;22.50;68.10;;;;;;5025467;28;20033;-45
2023/07/30 10:24:41;;;;;;;8.52;2.60;;;22.50;67.00;;;;;;5007107;28;20265;-44
2023/07/30 10:27:09;;;;;;;8.75;2.75;;;22.50;66.70;;;;;;5024470;28;20101;-44
2023/07/30 10:29:36;;;;;;;14.25;3.03;;;22.50;67.60;;;;;;5022298;28;20030;-44
2023/07/30 10:32:02;;;;;;;12.43;3.55;;;22.60;68.00;;;;;;5023766;28;20014;-45
2023/07/30 10:34:47;;;;;;;12.07;3.53;;;22.60;67.10;;;;;;5024552;28;20021;-47
2023/07/30 10:37:21;;;;;;;11.55;2.83;;;22.60;65.40;;;;;;5025079;28;20120;-47
2023/07/30 10:39:50;;;;;;;14.27;3.20;;;22.60;65.40;;;;;;5023646;28;20033;-46
2023/07/30 10:42:18;;;;;;;8.73;4.15;;;22.60;67.20;;;;;;5026074;28;20021;-45
2023/07/30 10:44:44;;;;;;;11.80;3.63;;;22.70;67.60;;;;;;5023102;28;20451;-46
2023/07/30 10:47:10;;;;;;;11.25;4.57;;;22.70;67.20;;;;;;5019784;28;20109;-49
2023/07/30 10:49:38;;;;;;;13.10;4.00;;;22.70;67.30;;;;;;5022844;28;20106;-47
2023/07/30 10:52:04;;;;;;;12.10;4.65;;;22.80;67.30;;;;;;5022875;28;20519;-48
2023/07/30 10:54:34;;;;;;;14.88;5.82;;;22.90;70.20;;;;;;5022836;28;20409;-45
2023/07/30 10:57:00;;;;;;;9.90;4.75;;;22.90;71.60;;;;;;5021668;28;20025;-49
2023/07/30 10:59:26;;;;;;;13.13;4.65;;;23.00;69.90;;;;;;5023605;28;20087;-46
2023/07/30 11:01:52;;;;;;;10.18;4.55;;;23.00;71.00;;;;;;5023475;28;20014;-48
2023/07/30 11:04:20;;;;;;;12.10;3.97;;;23.00;69.50;;;;;;5022885;28;20047;-45
2023/07/30 11:06:49;;;;;;;17.00;3.80;;;23.00;67.20;;;;;;5023115;28;20489;-46
2023/07/30 11:09:23;;;;;;;15.55;3.85;;;23.00;68.90;;;;;;5023455;28;20100;-47
2023/07/30 11:11:50;;;;;;;14.32;3.33;;;22.90;69.30;;;;;;5023695;28;20025;-47
2023/07/30 11:14:17;;;;;;;18.58;3.17;;;22.90;68.70;;;;;;5021697;28;20029;-44
2023/07/30 11:17:00;;;;;;;8.48;3.30;;;22.90;67.90;;;;;;5023844;28;20033;-44
2023/07/30 11:19:29;;;;;;;12.32;3.40;;;22.90;68.10;;;;;;5022447;28;20072;-46
2023/07/30 11:21:57;;;;;;;32.20;3.42;;;22.90;67.80;;;;;;5020447;28;20021;-49
2023/07/30 11:24:34;;;;;;;10.45;3.20;;;22.90;66.60;;;;;;5023292;28;20029;-44
2023/07/30 11:27:01;;;;;;;24.75;3.30;;;22.90;67.30;;;;;;5028523;28;20401;-50
2023/07/30 11:29:27;;;;;;;7.75;3.20;;;23.00;68.50;;;;;;5025497;28;20026;-49
2023/07/30 11:31:57;;;;;;;7.65;3.20;;;22.90;67.30;;;;;;5027923;28;20022;-49
2023/07/30 11:34:24;;;;;;;11.38;2.97;;;22.80;68.50;;;;;;5013363;28;20041;-46
2023/07/30 11:36:50;;;;;;;11.98;3.22;;;22.80;68.30;;;;;;5012654;28;20117;-46
2023/07/30 11:39:16;;;;;;;8.95;2.88;;;22.70;67.10;;;;;;5012003;28;20022;-49
2023/07/30 11:41:42;;;;;;;7.63;2.70;;;22.70;68.30;;;;;;5013021;28;20032;-45
2023/07/30 11:44:08;;;;;;;12.05;3.22;;;22.70;68.90;;;;;;5012894;28;20022;-46
2023/07/30 11:46:36;;;;;;;10.05;3.40;;;22.60;68.70;;;;;;5012460;28;20026;-49
2023/07/30 11:49:31;;;;;;;5.50;2.50;;;22.60;68.80;;;;;;5012909;28;20081;-49
2023/07/30 11:52:09;;;;;;;7.68;2.80;;;22.60;68.70;;;;;;4933858;29;20051;-49
2023/07/30 11:54:35;;;;;;;7.85;2.63;;;22.60;69.00;;;;;;4933683;29;20039;-49
2023/07/30 11:57:01;;;;;;;8.10;2.70;;;22.60;68.60;;;;;;4933994;29;20047;-46
2023/07/30 11:59:27;;;;;;;10.25;3.03;;;22.60;69.00;;;;;;4933784;29;20086;-44
2023/07/30 12:01:53;;;;;;;6.07;2.70;;;22.60;68.60;;;;;;4933764;29;20035;-43
2023/07/30 12:04:19;;;;;;;7.60;2.63;;;22.50;68.90;;;;;;4933570;29;20036;-48
2023/07/30 12:06:48;;;;;;;7.18;2.90;;;22.60;69.00;;;;;;4917697;29;20119;-49
2023/07/30 12:09:21;;;;;;;6.57;2.78;;;22.60;69.00;;;;;;4933613;29;20134;-46
2023/07/30 12:12:00;;;;;;;6.95;2.67;;;22.60;69.00;;;;;;4934055;29;20042;-49
2023/07/30 12:14:43;;;;;;;13.98;2.85;;;22.50;68.90;;;;;;4933132;29;20392;-45
2023/07/30 12:17:09;;;;;;;9.40;2.63;;;22.60;68.90;;;;;;4933620;29;20039;-44
2023/07/30 12:19:36;;;;;;;7.85;2.90;;;22.60;69.00;;;;;;4933629;29;20030;-45
2023/07/30 12:22:02;;;;;;;7.70;2.67;;;22.50;68.90;;;;;;4933482;29;20544;-44
2023/07/30 12:24:28;;;;;;;5.22;2.53;;;22.50;68.90;;;;;;4916049;29;20118;-44
2023/07/30 12:26:54;;;;;;;6.55;2.65;;;22.50;68.90;;;;;;4933297;29;20179;-43
2023/07/30 12:29:19;;;;;;;5.78;2.70;;;22.50;68.90;;;;;;5006141;28;20045;-43
2023/07/30 12:31:46;;;;;;;9.80;2.92;;;22.50;68.80;;;;;;5013042;28;20024;-44
2023/07/30 12:34:12;;;;;;;3.72;2.33;;;22.50;68.80;;;;;;5013083;28;20026;-43
2023/07/30 12:36:38;;;;;;;7.05;2.58;;;22.50;68.90;;;;;;5012720;28;20037;-44
2023/07/30 12:39:03;;;;;;;6.55;2.58;;;22.50;68.80;;;;;;5012999;28;20440;-46
2023/07/30 12:41:29;;;;;;;6.20;2.42;;;22.50;68.80;;;;;;5012881;28;20105;-44
2023/07/30 12:43:57;;;;;;;7.20;2.78;;;22.50;68.90;;;;;;5012788;28;20516;-49